createdAt,value
2022-11-29T00:01:11.911Z,98764.41
2022-11-29T00:03:38.661Z,98765.81
2022-11-29T00:06:11.484Z,98773.63
2022-11-29T00:08:38.506Z,98771.03
2022-11-29T00:11:07.171Z,98767.50
2022-11-29T00:13:34.641Z,98762.41
2022-11-29T00:16:06.475Z,98758.63
2022-11-29T00:18:33.817Z,98764.75
2022-11-29T00:21:00.932Z,98757.66
2022-11-29T00:23:27.872Z,98765.59
2022-11-29T00:25:54.829Z,98757.66
2022-11-29T00:28:21.783Z,98755.16
2022-11-29T00:30:48.700Z,98757.41
2022-11-29T00:33:15.667Z,98756.00
2022-11-29T00:35:42.923Z,98754.56
2022-11-29T00:38:09.795Z,98753.16
2022-11-29T00:40:36.978Z,98760.00
2022-11-29T00:43:03.981Z,98758.72
2022-11-29T00:45:30.931Z,98754.81
2022-11-29T00:47:57.837Z,98746.66
2022-11-29T00:50:24.664Z,98750.78
2022-11-29T00:52:51.667Z,98746.72
2022-11-29T00:55:18.632Z,98747.47
2022-11-29T00:57:45.579Z,98750.16
2022-11-29T01:00:13.570Z,98756.72
2022-11-29T01:02:40.868Z,98748.31
2022-11-29T01:05:08.592Z,98755.28
2022-11-29T01:07:36.015Z,98754.81
2022-11-29T01:10:03.398Z,98765.00
2022-11-29T01:12:30.416Z,98757.88
2022-11-29T01:14:59.076Z,98755.63
2022-11-29T01:17:26.084Z,98749.81
2022-11-29T01:19:53.192Z,98762.50
2022-11-29T01:22:20.063Z,98762.13
2022-11-29T01:24:47.293Z,98762.59
2022-11-29T01:27:14.270Z,98759.28
2022-11-29T01:29:41.208Z,98767.22
2022-11-29T01:32:08.141Z,98769.72
2022-11-29T01:34:35.160Z,98764.75
2022-11-29T01:37:02.016Z,98773.53
2022-11-29T01:39:29.467Z,98771.97
2022-11-29T01:41:57.340Z,98774.34
2022-11-29T01:45:10.789Z,98779.09
2022-11-29T01:47:41.530Z,98763.91
2022-11-29T01:50:09.095Z,98769.00
2022-11-29T01:52:36.082Z,98771.63
2022-11-29T01:55:05.125Z,98773.97
2022-11-29T01:57:35.857Z,98773.38
2022-11-29T02:00:09.087Z,98771.25
2022-11-29T02:02:40.566Z,98760.09
2022-11-29T02:05:08.494Z,98763.91
2022-11-29T02:07:36.262Z,98757.16
2022-11-29T02:10:04.076Z,98770.66
2022-11-29T02:12:47.857Z,98772.44
2022-11-29T02:15:58.044Z,98765.78
2022-11-29T02:18:59.484Z,98768.06
2022-11-29T02:21:29.661Z,98767.78
2022-11-29T02:24:13.783Z,98766.13
2022-11-29T02:27:54.588Z,98774.69
2022-11-29T02:31:00.325Z,98773.47
2022-11-29T02:37:19.877Z,98771.78
2022-11-29T02:40:28.833Z,98772.78
2022-11-29T02:43:44.551Z,98767.34
2022-11-29T02:46:32.095Z,98762.38
2022-11-29T02:49:14.199Z,98774.72
2022-11-29T02:51:52.656Z,98768.06
2022-11-29T02:54:48.431Z,98769.63
2022-11-29T02:57:31.876Z,98762.59
2022-11-29T03:00:14.421Z,98769.25
2022-11-29T03:03:22.467Z,98773.38
2022-11-29T03:06:29.271Z,98769.97
2022-11-29T03:09:23.497Z,98778.03
2022-11-29T03:15:30.902Z,98787.84
2022-11-29T03:18:01.896Z,98788.91
2022-11-29T03:20:38.308Z,98792.94
2022-11-29T03:23:21.303Z,98791.03
2022-11-29T03:26:21.948Z,98793.16
2022-11-29T03:29:01.713Z,98791.06
2022-11-29T03:31:36.070Z,98795.31
2022-11-29T03:34:08.975Z,98796.47
2022-11-29T03:37:18.551Z,98790.44
2022-11-29T03:39:52.541Z,98796.03
2022-11-29T03:42:27.076Z,98803.13
2022-11-29T03:45:04.841Z,98803.97
2022-11-29T03:47:37.214Z,98809.03
2022-11-29T03:50:08.074Z,98810.91
2022-11-29T03:52:51.782Z,98806.00
2022-11-29T03:55:41.679Z,98806.28
2022-11-29T03:58:18.601Z,98811.38
2022-11-29T04:01:03.448Z,98811.41
2022-11-29T04:04:05.538Z,98818.19
2022-11-29T04:06:41.557Z,98811.19
2022-11-29T04:09:35.506Z,98812.13
2022-11-29T04:12:35.890Z,98799.31
2022-11-29T04:15:20.764Z,98814.75
2022-11-29T04:18:34.214Z,98805.50
2022-11-29T04:21:17.554Z,98811.28
2022-11-29T04:24:12.007Z,98811.19
2022-11-29T04:27:01.121Z,98821.63
2022-11-29T04:29:47.184Z,98814.75
2022-11-29T04:32:47.015Z,98820.31
2022-11-29T04:35:55.640Z,98821.41
2022-11-29T04:42:05.425Z,98820.91
2022-11-29T04:45:19.012Z,98827.56
2022-11-29T04:47:56.873Z,98827.31
2022-11-29T04:51:21.430Z,98834.41
2022-11-29T04:53:58.811Z,98834.41
2022-11-29T04:56:55.704Z,98837.97
2022-11-29T04:59:47.293Z,98839.63
2022-11-29T05:05:54.378Z,98849.97
2022-11-29T05:15:38.036Z,98845.22
2022-11-29T05:18:47.727Z,98845.59
2022-11-29T05:21:30.707Z,98857.19
2022-11-29T05:24:38.958Z,98858.84
2022-11-29T05:27:29.142Z,98851.72
2022-11-29T05:30:05.690Z,98863.84
2022-11-29T05:33:05.695Z,98858.75
2022-11-29T05:35:55.101Z,98870.13
2022-11-29T05:38:53.555Z,98873.06
2022-11-29T05:41:39.371Z,98879.59
2022-11-29T05:44:13.278Z,98878.66
2022-11-29T05:47:02.160Z,98880.56
2022-11-29T05:49:45.205Z,98885.41
2022-11-29T05:52:26.162Z,98875.69
2022-11-29T05:55:20.428Z,98884.09
2022-11-29T05:58:01.539Z,98883.03
2022-11-29T06:00:35.129Z,98883.28
2022-11-29T06:03:34.238Z,98882.44
2022-11-29T06:06:08.739Z,98885.63
2022-11-29T06:08:58.571Z,98896.91
2022-11-29T06:11:30.605Z,98900.09
2022-11-29T06:14:48.426Z,98912.19
2022-11-29T06:17:53.181Z,98915.75
2022-11-29T06:20:58.925Z,98920.97
2022-11-29T06:23:55.527Z,98915.75
2022-11-29T06:26:50.052Z,98916.34
2022-11-29T06:29:55.493Z,98929.53
2022-11-29T06:32:37.266Z,98920.50
2022-11-29T06:35:09.574Z,98932.84
2022-11-29T06:37:43.352Z,98926.78
2022-11-29T06:40:12.634Z,98929.75
2022-11-29T06:42:39.587Z,98938.28
2022-11-29T06:45:07.761Z,98934.38
2022-11-29T06:47:44.247Z,98936.88
2022-11-29T06:50:52.378Z,98945.28
2022-11-29T06:53:56.280Z,98937.69
2022-11-29T06:56:41.791Z,98946.34
2022-11-29T06:59:25.881Z,98947.53
2022-11-29T07:02:19.446Z,98945.19
2022-11-29T07:05:04.242Z,98949.19
2022-11-29T07:07:31.900Z,98946.59
2022-11-29T07:09:59.880Z,98947.53
2022-11-29T07:12:27.462Z,98950.25
2022-11-29T07:14:55.044Z,98956.53
2022-11-29T07:17:33.919Z,98954.50
2022-11-29T07:20:39.469Z,98963.66
2022-11-29T07:23:19.182Z,98961.06
2022-11-29T07:26:32.442Z,98966.88
2022-11-29T07:29:16.586Z,98966.53
2022-11-29T07:31:59.236Z,98971.38
2022-11-29T07:35:15.874Z,98969.94
2022-11-29T07:38:32.819Z,98971.59
2022-11-29T07:41:22.643Z,98974.81
2022-11-29T07:44:30.725Z,98974.47
2022-11-29T07:46:57.564Z,98974.00
2022-11-29T07:49:24.753Z,98972.56
2022-11-29T07:51:51.877Z,98976.94
2022-11-29T07:54:20.190Z,98979.91
2022-11-29T07:56:47.350Z,98977.28
2022-11-29T07:59:14.968Z,98983.09
2022-11-29T08:01:42.059Z,98984.28
2022-11-29T08:04:09.879Z,98986.56
2022-11-29T08:06:36.892Z,98989.06
2022-11-29T08:09:04.671Z,98994.97
2022-11-29T08:11:31.627Z,98993.22
2022-11-29T08:14:00.354Z,98991.53
2022-11-29T08:16:27.900Z,99006.84
2022-11-29T08:18:55.225Z,98993.66
2022-11-29T08:21:22.388Z,98999.72
2022-11-29T08:23:50.140Z,99012.63
2022-11-29T08:26:18.120Z,99001.38
2022-11-29T08:28:45.345Z,99003.84
2022-11-29T08:31:13.554Z,99006.59
2022-11-29T08:33:43.106Z,99002.69
2022-11-29T08:36:28.397Z,99010.63
2022-11-29T08:39:03.482Z,99011.78
2022-11-29T08:41:34.995Z,99012.75
2022-11-29T08:44:04.770Z,99010.84
2022-11-29T08:46:50.382Z,99014.66
2022-11-29T08:49:17.313Z,99009.19
2022-11-29T08:51:44.737Z,99019.16
2022-11-29T08:54:11.824Z,99017.28
2022-11-29T08:59:25.707Z,99013.34
2022-11-29T09:01:52.581Z,99023.78
2022-11-29T09:04:19.542Z,99031.03
2022-11-29T09:06:50.008Z,99030.56
2022-11-29T09:09:17.656Z,99031.41
2022-11-29T09:11:48.197Z,99038.97
2022-11-29T09:14:17.611Z,99042.41
2022-11-29T09:16:44.666Z,99044.56
2022-11-29T09:19:14.334Z,99047.75
2022-11-29T09:21:42.050Z,99047.41
2022-11-29T09:24:10.520Z,99050.47
2022-11-29T09:26:38.377Z,99053.81
2022-11-29T09:29:06.678Z,99062.59
2022-11-29T09:31:35.123Z,99059.63
2022-11-29T09:34:02.755Z,99051.81
2022-11-29T09:36:31.079Z,99054.53
2022-11-29T09:38:59.019Z,99062.59
2022-11-29T09:42:05.208Z,99061.16
2022-11-29T09:45:08.828Z,99059.03
2022-11-29T09:48:22.251Z,99072.56
2022-11-29T09:51:09.311Z,99071.25
2022-11-29T09:54:19.523Z,99068.41
2022-11-29T09:56:49.491Z,99070.44
2022-11-29T09:59:43.900Z,99077.53
2022-11-29T10:02:27.171Z,99080.88
2022-11-29T10:04:57.594Z,99077.53
2022-11-29T10:07:47.247Z,99070.66
2022-11-29T10:10:41.077Z,99075.56
2022-11-29T10:13:20.516Z,99083.03
2022-11-29T10:15:52.934Z,99084.47
2022-11-29T10:18:24.259Z,99082.31
2022-11-29T10:20:53.394Z,99084.56
2022-11-29T10:23:29.723Z,99082.06
2022-11-29T10:25:57.954Z,99082.91
2022-11-29T10:28:30.747Z,99086.13
2022-11-29T10:31:02.913Z,99079.94
2022-11-29T10:33:34.536Z,99077.91
2022-11-29T10:36:06.003Z,99084.69
2022-11-29T10:38:33.104Z,99082.06
2022-11-29T10:41:12.235Z,99083.50
2022-11-29T10:43:39.368Z,99077.81
2022-11-29T10:46:11.657Z,99077.81
2022-11-29T10:48:38.621Z,99088.13
2022-11-29T10:51:15.810Z,99092.78
2022-11-29T10:53:42.842Z,99091.81
2022-11-29T10:56:17.182Z,99077.56
2022-11-29T10:58:56.237Z,99088.34
2022-11-29T11:01:24.299Z,99086.38
2022-11-29T11:03:55.503Z,99084.47
2022-11-29T11:06:27.578Z,99085.63
2022-11-29T11:09:13.232Z,99088.72
2022-11-29T11:11:40.305Z,99090.97
2022-11-29T11:14:18.342Z,99090.16
2022-11-29T11:16:45.258Z,99095.59
2022-11-29T11:19:41.616Z,99088.50
2022-11-29T11:22:21.138Z,99092.28
2022-11-29T11:24:57.292Z,99095.50
2022-11-29T11:27:36.441Z,99092.19
2022-11-29T11:30:05.365Z,99093.00
2022-11-29T11:32:32.448Z,99096.19
2022-11-29T11:35:01.776Z,99096.81
2022-11-29T11:37:36.135Z,99098.34
2022-11-29T11:40:26.057Z,99099.16
2022-11-29T11:42:53.015Z,99103.44
2022-11-29T11:45:26.506Z,99097.50
2022-11-29T11:47:56.032Z,99104.16
2022-11-29T11:50:44.778Z,99110.78
2022-11-29T11:53:28.028Z,99111.63
2022-11-29T11:55:58.116Z,99112.81
2022-11-29T11:58:28.168Z,99112.69
2022-11-29T12:01:05.918Z,99117.44
2022-11-29T12:03:59.992Z,99119.00
2022-11-29T12:06:45.478Z,99116.84
2022-11-29T12:09:27.878Z,99119.34
2022-11-29T12:12:01.952Z,99123.50
2022-11-29T12:14:46.988Z,99121.25
2022-11-29T12:17:21.804Z,99126.94
2022-11-29T12:20:09.593Z,99127.66
2022-11-29T12:22:45.287Z,99131.94
2022-11-29T12:25:23.044Z,99131.94
2022-11-29T12:27:50.746Z,99130.28
2022-11-29T12:30:19.265Z,99132.63
2022-11-29T12:33:15.502Z,99130.75
2022-11-29T12:36:05.027Z,99133.84
2022-11-29T12:39:14.931Z,99141.44
2022-11-29T12:41:53.999Z,99136.22
2022-11-29T12:45:03.636Z,99145.97
2022-11-29T12:47:51.507Z,99144.53
2022-11-29T12:51:02.002Z,99145.38
2022-11-29T12:53:56.231Z,99134.06
2022-11-29T12:56:46.369Z,99149.53
2022-11-29T12:59:42.330Z,99146.19
2022-11-29T13:02:58.124Z,99147.97
2022-11-29T13:05:51.821Z,99141.81
2022-11-29T13:09:02.972Z,99143.34
2022-11-29T13:11:35.461Z,99140.47
2022-11-29T13:14:41.066Z,99148.09
2022-11-29T13:17:01.658Z,99138.59
2022-11-29T13:19:46.038Z,99146.28
2022-11-29T13:23:11.570Z,99151.28
2022-11-29T13:25:42.346Z,99150.13
2022-11-29T13:28:22.206Z,99149.53
2022-11-29T13:30:49.370Z,99152.13
2022-11-29T13:33:27.806Z,99152.13
2022-11-29T13:36:14.734Z,99147.13
2022-11-29T13:39:05.200Z,99147.38
2022-11-29T13:41:46.565Z,99154.75
2022-11-29T13:44:28.076Z,99155.22
2022-11-29T13:47:17.842Z,99157.09
2022-11-29T13:50:39.898Z,99157.38
2022-11-29T13:53:14.856Z,99155.09
2022-11-29T13:56:02.775Z,99160.09
2022-11-29T13:58:39.642Z,99154.97
2022-11-29T14:01:14.620Z,99158.66
2022-11-29T14:03:42.783Z,99157.81
2022-11-29T14:06:21.917Z,99157.13
2022-11-29T14:09:22.528Z,99163.19
2022-11-29T14:11:59.148Z,99165.53
2022-11-29T14:14:40.856Z,99167.56
2022-11-29T14:17:46.809Z,99168.75
2022-11-29T14:20:46.742Z,99169.94
2022-11-29T14:23:17.041Z,99170.44
2022-11-29T14:26:26.638Z,99168.63
2022-11-29T14:28:55.584Z,99157.59
2022-11-29T14:31:48.532Z,99174.69
2022-11-29T14:34:21.558Z,99172.56
2022-11-29T14:37:16.790Z,99168.03
2022-11-29T14:39:48.845Z,99169.22
2022-11-29T14:42:21.812Z,99175.38
2022-11-29T14:44:53.545Z,99173.97
2022-11-29T14:47:27.252Z,99175.97
2022-11-29T14:49:56.187Z,99180.59
2022-11-29T14:52:34.335Z,99185.47
2022-11-29T14:55:05.545Z,99187.13
2022-11-29T14:58:08.009Z,99185.47
2022-11-29T15:00:54.746Z,99192.50
2022-11-29T15:03:31.238Z,99195.81
2022-11-29T15:06:00.368Z,99193.56
2022-11-29T15:08:35.957Z,99199.38
2022-11-29T15:11:41.627Z,99205.31
2022-11-29T15:14:46.983Z,99211.72
2022-11-29T15:17:26.722Z,99207.91
2022-11-29T15:20:38.950Z,99219.66
2022-11-29T15:23:10.486Z,99211.94
2022-11-29T15:25:50.827Z,99215.50
2022-11-29T15:28:26.257Z,99214.91
2022-11-29T15:31:07.866Z,99218.00
2022-11-29T15:33:37.801Z,99210.28
2022-11-29T15:36:10.290Z,99211.72
2022-11-29T15:38:59.378Z,99210.28
2022-11-29T15:41:31.643Z,99218.34
2022-11-29T15:44:06.549Z,99225.25
2022-11-29T15:46:35.685Z,99220.97
2022-11-29T15:49:16.926Z,99225.88
2022-11-29T15:51:46.351Z,99226.94
2022-11-29T15:54:18.346Z,99227.25
2022-11-29T15:56:48.052Z,99234.28
2022-11-29T15:59:37.809Z,99240.78
2022-11-29T16:02:16.743Z,99231.19
2022-11-29T16:04:47.186Z,99244.72
2022-11-29T16:07:15.330Z,99243.50
2022-11-29T16:09:51.508Z,99244.34
2022-11-29T16:12:19.650Z,99253.59
2022-11-29T16:14:58.213Z,99247.91
2022-11-29T16:17:35.449Z,99253.25
2022-11-29T16:20:23.868Z,99258.81
2022-11-29T16:23:14.375Z,99255.38
2022-11-29T16:26:04.352Z,99259.13
2022-11-29T16:28:38.023Z,99258.53
2022-11-29T16:31:05.852Z,99262.25
2022-11-29T16:33:32.839Z,99263.47
2022-11-29T16:36:05.145Z,99266.91
2022-11-29T16:38:32.101Z,99266.75
2022-11-29T16:41:22.410Z,99266.50
2022-11-29T16:43:54.212Z,99266.19
2022-11-29T16:46:41.392Z,99271.03
2022-11-29T16:49:35.817Z,99273.63
2022-11-29T16:52:04.300Z,99269.25
2022-11-29T16:54:34.266Z,99275.09
2022-11-29T16:57:05.681Z,99275.09
2022-11-29T16:59:32.782Z,99275.28
2022-11-29T17:01:59.742Z,99268.19
2022-11-29T17:04:27.063Z,99270.94
2022-11-29T17:06:55.555Z,99270.94
2022-11-29T17:09:30.635Z,99270.56
2022-11-29T17:12:01.893Z,99270.34
2022-11-29T17:14:29.725Z,99269.75
2022-11-29T17:16:56.888Z,99274.84
2022-11-29T17:19:24.713Z,99277.22
2022-11-29T17:21:53.088Z,99277.34
2022-11-29T17:24:21.213Z,99279.94
2022-11-29T17:26:48.133Z,99287.91
2022-11-29T17:29:16.132Z,99277.44
2022-11-29T17:31:44.444Z,99284.22
2022-11-29T17:34:11.639Z,99292.19
2022-11-29T17:36:38.648Z,99288.03
2022-11-29T17:39:06.081Z,99284.78
2022-11-29T17:41:33.463Z,99283.88
2022-11-29T17:44:00.919Z,99287.78
2022-11-29T17:46:30.593Z,99287.69
2022-11-29T17:49:00.432Z,99292.69
2022-11-29T17:54:14.159Z,99290.50
2022-11-29T17:56:41.019Z,99301.78
2022-11-29T17:59:07.915Z,99296.69
2022-11-29T18:01:36.326Z,99301.78
2022-11-29T18:04:05.525Z,99303.78
2022-11-29T18:06:39.803Z,99313.44
2022-11-29T18:09:07.160Z,99316.41
2022-11-29T18:11:44.847Z,99304.31
2022-11-29T18:14:15.942Z,99312.84
2022-11-29T18:16:45.429Z,99304.50
2022-11-29T18:19:15.294Z,99314.75
2022-11-29T18:21:42.566Z,99307.13
2022-11-29T18:24:09.878Z,99312.13
2022-11-29T18:26:37.759Z,99314.19
2022-11-29T18:29:05.989Z,99319.91
2022-11-29T18:31:35.215Z,99320.13
2022-11-29T18:34:03.898Z,99311.50
2022-11-29T18:36:36.666Z,99320.78
2022-11-29T18:39:11.641Z,99324.03
2022-11-29T18:41:38.634Z,99323.84
2022-11-29T18:44:08.154Z,99325.00
2022-11-29T18:46:37.119Z,99324.59
2022-11-29T18:49:08.794Z,99326.16
2022-11-29T18:51:36.784Z,99328.75
2022-11-29T18:54:04.342Z,99332.06
2022-11-29T18:56:33.253Z,99330.41
2022-11-29T18:59:03.376Z,99334.13
2022-11-29T19:01:32.466Z,99324.13
2022-11-29T19:04:00.291Z,99330.78
2022-11-29T19:06:37.146Z,99325.19
2022-11-29T19:09:07.046Z,99326.00
2022-11-29T19:11:35.127Z,99326.97
2022-11-29T19:14:04.208Z,99335.84
2022-11-29T19:16:32.964Z,99330.78
2022-11-29T19:19:00.567Z,99335.19
2022-11-29T19:21:29.919Z,99331.63
2022-11-29T19:24:01.921Z,99335.56
2022-11-29T19:26:30.524Z,99329.84
2022-11-29T19:28:57.911Z,99340.91
2022-11-29T19:31:27.189Z,99343.06
2022-11-29T19:33:55.245Z,99334.72
2022-11-29T19:36:24.704Z,99334.38
2022-11-29T19:38:54.140Z,99341.41
2022-11-29T19:41:23.883Z,99344.34
2022-11-29T19:43:51.207Z,99349.25
2022-11-29T19:46:24.023Z,99335.63
2022-11-29T19:48:55.291Z,99344.63
2022-11-29T19:51:23.144Z,99344.63
2022-11-29T19:53:54.662Z,99346.13
2022-11-29T19:56:22.033Z,99345.03
2022-11-29T19:58:49.198Z,99342.53
2022-11-29T20:01:18.458Z,99348.50
2022-11-29T20:03:45.621Z,99340.63
2022-11-29T20:06:13.770Z,99340.03
2022-11-29T20:08:41.814Z,99349.41
2022-11-29T20:11:13.525Z,99348.91
2022-11-29T20:13:42.068Z,99356.03
2022-11-29T20:16:11.867Z,99355.78
2022-11-29T20:18:42.616Z,99360.47
2022-11-29T20:21:14.715Z,99362.84
2022-11-29T20:23:42.185Z,99358.41
2022-11-29T20:26:17.034Z,99364.06
2022-11-29T20:28:44.568Z,99368.13
2022-11-29T20:31:15.201Z,99368.63
2022-11-29T20:33:43.440Z,99367.09
2022-11-29T20:36:48.965Z,99368.44
2022-11-29T20:39:48.589Z,99375.53
2022-11-29T20:43:04.084Z,99382.41
2022-11-29T20:45:31.317Z,99388.09
2022-11-29T20:48:11.392Z,99385.75
2022-11-29T20:50:38.482Z,99386.06
2022-11-29T20:53:33.035Z,99389.75
2022-11-29T20:56:00.329Z,99387.78
2022-11-29T20:58:27.767Z,99385.75
2022-11-29T21:00:55.639Z,99391.19
2022-11-29T21:03:23.500Z,99387.19
2022-11-29T21:05:50.906Z,99383.16
2022-11-29T21:08:21.121Z,99380.16
2022-11-29T21:10:49.511Z,99382.53
2022-11-29T21:13:18.092Z,99383.00
2022-11-29T21:15:45.566Z,99384.81
2022-11-29T21:18:24.384Z,99387.78
2022-11-29T21:21:15.391Z,99392.66
2022-11-29T21:24:26.524Z,99397.88
2022-11-29T21:26:53.735Z,99397.31
2022-11-29T21:29:23.636Z,99396.56
2022-11-29T21:31:53.036Z,99393.47
2022-11-29T21:34:20.843Z,99390.59
2022-11-29T21:36:57.308Z,99389.31
2022-11-29T21:39:27.689Z,99390.13
2022-11-29T21:41:54.900Z,99388.97
2022-11-29T21:44:21.689Z,99388.38
2022-11-29T21:46:48.512Z,99383.84
2022-11-29T21:49:15.489Z,99390.53
2022-11-29T21:51:42.354Z,99389.94
2022-11-29T21:54:09.132Z,99393.25
2022-11-29T21:56:36.019Z,99393.81
2022-11-29T21:59:03.035Z,99396.41
2022-11-29T22:01:30.144Z,99389.53
2022-11-29T22:03:57.010Z,99391.31
2022-11-29T22:06:24.485Z,99397.38
2022-11-29T22:08:51.320Z,99394.75
2022-11-29T22:11:34.388Z,99405.81
2022-11-29T22:14:19.959Z,99397.88
2022-11-29T22:16:50.754Z,99393.53
2022-11-29T22:19:19.746Z,99395.16
2022-11-29T22:21:52.404Z,99401.66
2022-11-29T22:24:21.191Z,99400.38
2022-11-29T22:26:49.096Z,99399.78
2022-11-29T22:29:16.616Z,99395.38
2022-11-29T22:31:45.343Z,99390.59
2022-11-29T22:34:12.238Z,99390.78
2022-11-29T22:36:39.714Z,99393.53
2022-11-29T22:39:07.851Z,99386.41
2022-11-29T22:41:35.775Z,99389.03
2022-11-29T22:44:03.302Z,99394.31
2022-11-29T22:46:30.594Z,99390.94
2022-11-29T22:48:58.602Z,99392.75
2022-11-29T22:51:33.105Z,99395.03
2022-11-29T22:54:05.683Z,99397.31
2022-11-29T22:56:38.173Z,99396.88
2022-11-29T22:59:05.109Z,99401.25
2022-11-29T23:01:33.744Z,99407.53
2022-11-29T23:04:04.093Z,99407.31
2022-11-29T23:06:35.498Z,99411.81
2022-11-29T23:09:12.431Z,99408.75
2022-11-29T23:11:39.282Z,99404.34
2022-11-29T23:14:06.170Z,99408.75
2022-11-29T23:16:33.703Z,99406.59
2022-11-29T23:19:01.361Z,99408.25
2022-11-29T23:21:33.152Z,99419.22
2022-11-29T23:24:02.862Z,99411.09
2022-11-29T23:26:36.563Z,99417.97
2022-11-29T23:29:08.435Z,99418.91
2022-11-29T23:31:35.249Z,99412.25
2022-11-29T23:34:02.590Z,99414.66
2022-11-29T23:36:29.497Z,99409.41
2022-11-29T23:38:56.222Z,99417.25
2022-11-29T23:41:23.132Z,99410.88
2022-11-29T23:43:50.042Z,99414.19
2022-11-29T23:46:19.414Z,99411.69
2022-11-29T23:48:46.679Z,99407.97
2022-11-29T23:51:14.148Z,99416.53
2022-11-29T23:53:41.457Z,99411.31
2022-11-29T23:56:12.088Z,99410.31
2022-11-29T23:58:39.059Z,99409.47
